createdAt,value
2023-03-10T00:01:28.458Z,43.73
2023-03-10T00:03:58.830Z,37.40
2023-03-10T00:06:32.625Z,42.03
2023-03-10T00:09:01.146Z,50.10
2023-03-10T00:11:29.221Z,41.77
2023-03-10T00:13:57.262Z,45.67
2023-03-10T00:16:29.896Z,43.60
2023-03-10T00:18:58.037Z,45.03
2023-03-10T00:21:32.345Z,42.70
2023-03-10T00:24:00.706Z,49.83
2023-03-10T00:26:30.036Z,49.73
2023-03-10T00:28:58.075Z,52.70
2023-03-10T00:31:31.283Z,46.37
2023-03-10T00:33:59.736Z,54.50
2023-03-10T00:36:31.124Z,48.00
2023-03-10T00:39:01.481Z,57.43
2023-03-10T00:41:33.461Z,44.47
2023-03-10T00:44:02.088Z,47.00
2023-03-10T00:46:33.235Z,48.07
2023-03-10T00:49:01.262Z,55.43
2023-03-10T00:51:29.472Z,49.30
2023-03-10T00:53:58.807Z,48.67
2023-03-10T00:56:27.669Z,53.60
2023-03-10T00:59:00.680Z,49.97
2023-03-10T01:01:41.912Z,49.17
2023-03-10T01:04:15.553Z,52.30
2023-03-10T01:06:45.156Z,48.90
2023-03-10T01:09:13.667Z,64.30
2023-03-10T01:11:41.923Z,52.40
2023-03-10T01:14:14.780Z,55.20
2023-03-10T01:16:42.930Z,50.30
2023-03-10T01:19:11.160Z,50.43
2023-03-10T01:21:40.595Z,52.47
2023-03-10T01:24:15.106Z,53.70
2023-03-10T01:26:43.165Z,56.03
2023-03-10T01:29:11.095Z,62.30
2023-03-10T01:31:39.996Z,59.57
2023-03-10T01:34:10.448Z,54.67
2023-03-10T01:36:40.836Z,66.90
2023-03-10T01:39:09.269Z,57.97
2023-03-10T01:41:41.967Z,59.50
2023-03-10T01:44:18.129Z,65.53
2023-03-10T01:46:59.689Z,58.03
2023-03-10T01:49:36.218Z,56.83
2023-03-10T01:52:21.603Z,53.43
2023-03-10T01:55:21.707Z,44.60
2023-03-10T01:57:55.794Z,50.47
2023-03-10T02:00:27.178Z,47.00
2023-03-10T02:03:13.004Z,46.67
2023-03-10T02:05:50.126Z,44.77
2023-03-10T02:08:20.532Z,40.07
2023-03-10T02:10:50.703Z,40.37
2023-03-10T02:13:18.980Z,38.93
2023-03-10T02:15:47.743Z,40.17
2023-03-10T02:18:17.556Z,34.23
2023-03-10T02:21:28.187Z,37.30
2023-03-10T02:24:29.534Z,36.83
2023-03-10T02:27:17.107Z,34.90
2023-03-10T02:30:08.286Z,34.70
2023-03-10T02:32:43.917Z,30.17
2023-03-10T02:35:12.672Z,31.87
2023-03-10T02:37:41.624Z,32.13
2023-03-10T02:40:40.290Z,30.50
2023-03-10T02:43:23.072Z,28.30
2023-03-10T02:45:55.836Z,26.03
2023-03-10T02:48:31.126Z,25.43
2023-03-10T02:51:02.959Z,22.73
2023-03-10T02:53:31.432Z,23.47
2023-03-10T02:56:00.284Z,25.50
2023-03-10T02:58:31.036Z,22.97
2023-03-10T03:00:59.600Z,27.43
2023-03-10T03:03:28.091Z,24.10
2023-03-10T03:05:56.710Z,25.70
2023-03-10T03:08:24.949Z,25.43
2023-03-10T03:10:53.496Z,27.27
2023-03-10T03:13:21.853Z,29.93
2023-03-10T03:15:53.712Z,25.83
2023-03-10T03:18:22.357Z,30.23
2023-03-10T03:20:50.334Z,28.87
2023-03-10T03:23:19.659Z,26.13
2023-03-10T03:25:48.039Z,26.23
2023-03-10T03:28:16.126Z,23.97
2023-03-10T03:30:46.432Z,28.57
2023-03-10T03:33:14.775Z,24.03
2023-03-10T03:35:44.116Z,25.63
2023-03-10T03:38:12.730Z,25.40
2023-03-10T03:40:40.952Z,25.17
2023-03-10T03:43:10.237Z,23.33
2023-03-10T03:45:38.402Z,22.33
2023-03-10T03:48:06.690Z,21.83
2023-03-10T03:50:34.694Z,19.77
2023-03-10T03:53:02.634Z,22.37
2023-03-10T03:55:30.602Z,22.53
2023-03-10T03:57:58.581Z,14.67
2023-03-10T04:00:26.870Z,21.50
2023-03-10T04:02:55.110Z,18.30
2023-03-10T04:05:23.141Z,20.13
2023-03-10T04:07:51.137Z,17.97
2023-03-10T04:10:23.633Z,17.33
2023-03-10T04:12:51.607Z,17.70
2023-03-10T04:15:19.777Z,17.17
2023-03-10T04:17:48.044Z,13.87
2023-03-10T04:20:17.770Z,18.57
2023-03-10T04:22:45.843Z,19.50
2023-03-10T04:25:13.796Z,18.43
2023-03-10T04:27:41.808Z,16.53
2023-03-10T04:30:14.265Z,16.47
2023-03-10T04:32:42.397Z,16.30
2023-03-10T04:35:13.694Z,16.87
2023-03-10T04:37:42.149Z,16.90
2023-03-10T04:40:14.057Z,17.27
2023-03-10T04:42:42.434Z,16.83
2023-03-10T04:45:11.422Z,15.90
2023-03-10T04:47:39.614Z,19.03
2023-03-10T04:50:08.545Z,17.33
2023-03-10T04:52:36.463Z,17.83
2023-03-10T04:55:05.263Z,14.80
2023-03-10T04:57:33.246Z,17.43
2023-03-10T05:00:03.131Z,16.03
2023-03-10T05:02:32.650Z,24.57
2023-03-10T05:05:03.463Z,19.60
2023-03-10T05:07:31.494Z,20.00
2023-03-10T05:10:00.487Z,20.03
2023-03-10T05:12:28.404Z,18.97
2023-03-10T05:14:56.472Z,18.60
2023-03-10T05:17:25.052Z,16.47
2023-03-10T05:19:53.073Z,15.60
2023-03-10T05:22:21.436Z,16.20
2023-03-10T05:24:49.923Z,15.17
2023-03-10T05:27:19.774Z,16.27
2023-03-10T05:29:48.283Z,17.27
2023-03-10T05:32:16.469Z,17.10
2023-03-10T05:34:44.597Z,18.33
2023-03-10T05:37:12.611Z,18.13
2023-03-10T05:39:40.852Z,14.33
2023-03-10T05:42:09.056Z,15.20
2023-03-10T05:44:37.593Z,15.80
2023-03-10T05:47:06.862Z,14.97
2023-03-10T05:49:36.715Z,17.57
2023-03-10T05:52:07.254Z,17.33
2023-03-10T05:54:35.987Z,15.37
2023-03-10T05:57:04.219Z,16.03
2023-03-10T05:59:32.288Z,14.83
2023-03-10T06:02:03.288Z,15.87
2023-03-10T06:04:34.165Z,15.83
2023-03-10T06:07:02.513Z,17.60
2023-03-10T06:09:32.445Z,16.17
2023-03-10T06:12:00.811Z,19.10
2023-03-10T06:14:28.741Z,15.70
2023-03-10T06:16:56.947Z,14.33
2023-03-10T06:19:27.507Z,16.17
2023-03-10T06:21:55.449Z,17.20
2023-03-10T06:24:23.399Z,15.37
2023-03-10T06:26:51.435Z,15.50
2023-03-10T06:29:19.382Z,11.63
2023-03-10T06:31:50.566Z,16.60
2023-03-10T06:34:19.097Z,15.27
2023-03-10T06:36:46.983Z,18.87
2023-03-10T06:39:15.090Z,14.83
2023-03-10T06:41:45.802Z,16.73
2023-03-10T06:44:18.823Z,18.90
2023-03-10T06:46:47.579Z,17.77
2023-03-10T06:49:15.577Z,14.87
2023-03-10T06:51:44.023Z,16.23
2023-03-10T06:54:12.119Z,12.40
2023-03-10T06:56:40.186Z,12.83
2023-03-10T06:59:08.349Z,14.27
2023-03-10T07:01:36.433Z,14.23
2023-03-10T07:04:04.397Z,16.03
2023-03-10T07:06:32.738Z,15.00
2023-03-10T07:09:00.888Z,15.63
2023-03-10T07:11:28.879Z,19.43
2023-03-10T07:13:56.900Z,12.00
2023-03-10T07:16:25.073Z,14.57
2023-03-10T07:18:53.060Z,17.40
2023-03-10T07:21:22.094Z,20.00
2023-03-10T07:23:50.298Z,15.73
2023-03-10T07:26:18.912Z,14.50
2023-03-10T07:28:47.504Z,14.63
2023-03-10T07:31:18.613Z,13.23
2023-03-10T07:33:47.368Z,15.17
2023-03-10T07:36:19.695Z,11.97
2023-03-10T07:38:48.061Z,11.37
2023-03-10T07:41:22.016Z,11.63
2023-03-10T07:43:54.458Z,14.47
2023-03-10T07:46:22.822Z,14.33
2023-03-10T07:48:52.718Z,13.27
2023-03-10T07:51:21.203Z,11.60
2023-03-10T07:53:49.093Z,10.83
2023-03-10T07:56:17.135Z,12.73
2023-03-10T07:58:45.286Z,12.17
2023-03-10T08:01:20.564Z,15.13
2023-03-10T08:03:49.346Z,10.20
2023-03-10T08:06:27.788Z,13.07
2023-03-10T08:09:58.633Z,10.87
2023-03-10T08:12:25.989Z,15.03
2023-03-10T08:14:53.395Z,11.23
2023-03-10T08:17:20.721Z,10.57
2023-03-10T08:19:47.842Z,11.53
2023-03-10T08:22:18.082Z,12.93
2023-03-10T08:24:45.197Z,11.60
2023-03-10T08:27:12.376Z,11.47
2023-03-10T08:29:39.485Z,11.17
2023-03-10T08:32:07.134Z,8.77
2023-03-10T08:34:35.952Z,10.13
2023-03-10T08:37:03.410Z,10.10
2023-03-10T08:39:30.473Z,10.37
2023-03-10T08:41:57.497Z,10.93
2023-03-10T08:44:24.567Z,9.10
2023-03-10T08:46:52.058Z,7.47
2023-03-10T08:49:22.189Z,8.83
2023-03-10T08:51:50.108Z,10.67
2023-03-10T08:54:21.687Z,10.80
2023-03-10T08:56:50.105Z,9.43
2023-03-10T08:59:18.307Z,13.07
2023-03-10T09:01:46.842Z,11.80
2023-03-10T09:04:13.986Z,11.07
2023-03-10T09:06:41.162Z,10.63
2023-03-10T09:09:10.396Z,10.30
2023-03-10T09:11:40.643Z,11.97
2023-03-10T09:14:10.148Z,12.60
2023-03-10T09:16:39.468Z,12.17
2023-03-10T09:19:06.880Z,10.33
2023-03-10T09:21:36.851Z,13.13
2023-03-10T09:24:04.926Z,10.50
2023-03-10T09:26:33.157Z,9.30
2023-03-10T09:29:01.182Z,10.30
2023-03-10T09:31:39.337Z,7.97
2023-03-10T09:34:08.326Z,9.07
2023-03-10T09:36:35.935Z,8.70
2023-03-10T09:39:04.453Z,8.63
2023-03-10T09:41:53.236Z,9.90
2023-03-10T09:44:48.085Z,8.03
2023-03-10T09:48:11.064Z,11.07
2023-03-10T09:50:49.674Z,10.00
2023-03-10T09:53:37.491Z,8.87
2023-03-10T09:56:31.598Z,9.73
2023-03-10T10:03:31.790Z,9.03
2023-03-10T10:06:03.185Z,9.53
2023-03-10T10:09:07.187Z,12.60
2023-03-10T10:11:39.493Z,13.50
2023-03-10T10:14:30.589Z,10.50
2023-03-10T10:18:02.945Z,9.37
2023-03-10T10:20:58.645Z,9.27
2023-03-10T10:23:47.232Z,9.93
2023-03-10T10:26:24.854Z,14.97
2023-03-10T10:29:22.176Z,11.27
2023-03-10T10:32:15.330Z,12.40
2023-03-10T10:34:46.457Z,13.80
2023-03-10T10:37:40.170Z,14.10
2023-03-10T10:40:30.290Z,12.93
2023-03-10T10:43:00.709Z,12.10
2023-03-10T10:45:37.471Z,14.83
2023-03-10T10:48:04.816Z,11.37
2023-03-10T10:50:35.484Z,13.07
2023-03-10T10:53:26.675Z,14.10
2023-03-10T10:56:13.043Z,13.97
2023-03-10T10:58:43.852Z,12.40
2023-03-10T11:01:16.479Z,15.63
2023-03-10T11:03:48.724Z,13.70
2023-03-10T11:06:32.118Z,11.80
2023-03-10T11:09:12.581Z,14.87
2023-03-10T11:12:07.379Z,11.37
2023-03-10T11:14:52.355Z,14.83
2023-03-10T11:17:51.406Z,12.90
2023-03-10T11:21:04.384Z,14.83
2023-03-10T11:23:49.602Z,16.00
2023-03-10T11:26:27.117Z,16.57
2023-03-10T11:29:04.800Z,14.10
2023-03-10T11:32:08.167Z,22.67
2023-03-10T11:34:49.271Z,18.67
2023-03-10T11:37:41.926Z,14.17
2023-03-10T11:40:41.523Z,15.33
2023-03-10T11:43:42.147Z,13.33
2023-03-10T11:46:33.309Z,15.10
2023-03-10T11:49:17.297Z,11.80
2023-03-10T11:51:54.533Z,15.27
2023-03-10T11:54:36.809Z,15.37
2023-03-10T11:57:15.194Z,11.50
2023-03-10T11:59:59.222Z,10.73
2023-03-10T12:02:57.165Z,10.53
2023-03-10T12:05:27.166Z,13.23
2023-03-10T12:08:02.514Z,10.03
2023-03-10T12:10:31.373Z,9.73
2023-03-10T12:12:59.229Z,10.27
2023-03-10T12:15:36.996Z,9.57
2023-03-10T12:18:08.204Z,13.53
2023-03-10T12:20:37.157Z,9.30
2023-03-10T12:23:10.216Z,9.87
2023-03-10T12:25:41.431Z,11.90
2023-03-10T12:28:17.491Z,9.73
2023-03-10T12:31:10.752Z,10.67
2023-03-10T12:33:45.543Z,16.97
2023-03-10T12:36:40.691Z,16.30
2023-03-10T12:39:38.369Z,15.63
2023-03-10T12:42:37.266Z,17.83
2023-03-10T12:45:31.343Z,15.27
2023-03-10T12:48:12.153Z,15.50
2023-03-10T12:51:16.024Z,16.50
2023-03-10T12:54:23.544Z,16.30
2023-03-10T12:57:44.118Z,14.30
2023-03-10T13:00:55.448Z,17.33
2023-03-10T13:03:41.752Z,16.63
2023-03-10T13:06:39.833Z,12.50
2023-03-10T13:09:30.969Z,12.47
2023-03-10T13:12:11.486Z,9.97
2023-03-10T13:14:42.525Z,12.83
2023-03-10T13:17:26.930Z,10.00
2023-03-10T13:20:21.767Z,8.53
2023-03-10T13:22:59.435Z,11.90
2023-03-10T13:25:27.281Z,11.27
2023-03-10T13:27:57.340Z,9.63
2023-03-10T13:30:27.863Z,13.30
2023-03-10T13:32:59.610Z,11.77
2023-03-10T13:35:39.326Z,13.23
2023-03-10T13:38:24.309Z,13.57
2023-03-10T13:41:03.698Z,13.87
2023-03-10T13:43:49.015Z,11.60
2023-03-10T13:46:32.736Z,10.63
2023-03-10T13:49:06.618Z,11.73
2023-03-10T13:51:37.529Z,9.47
2023-03-10T13:54:31.712Z,10.67
2023-03-10T13:57:34.536Z,9.57
2023-03-10T14:00:02.670Z,9.60
2023-03-10T14:02:39.392Z,9.30
2023-03-10T14:05:28.722Z,9.13
2023-03-10T14:08:00.723Z,8.17
2023-03-10T14:10:29.221Z,8.57
2023-03-10T14:12:56.332Z,11.03
2023-03-10T14:15:38.741Z,9.07
2023-03-10T14:18:08.430Z,8.83
2023-03-10T14:20:48.432Z,10.97
2023-03-10T14:23:27.593Z,9.33
2023-03-10T14:25:58.899Z,11.77
2023-03-10T14:28:32.485Z,11.90
2023-03-10T14:31:04.571Z,9.27
2023-03-10T14:33:34.946Z,10.63
2023-03-10T14:36:02.208Z,11.10
2023-03-10T14:38:29.377Z,11.53
2023-03-10T14:40:56.583Z,9.57
2023-03-10T14:43:27.393Z,11.60
2023-03-10T14:45:58.693Z,11.70
2023-03-10T14:48:34.912Z,15.57
2023-03-10T14:51:03.026Z,16.93
2023-03-10T14:53:34.034Z,43.13
2023-03-10T14:56:02.752Z,26.83
2023-03-10T14:59:02.554Z,23.17
2023-03-10T15:01:30.509Z,26.57
2023-03-10T15:03:57.616Z,25.77
2023-03-10T15:06:24.676Z,23.70
2023-03-10T15:08:51.711Z,19.93
2023-03-10T15:11:30.328Z,18.77
2023-03-10T15:14:11.450Z,19.90
2023-03-10T15:16:38.602Z,19.27
2023-03-10T15:19:05.720Z,22.03
2023-03-10T15:21:33.010Z,23.60
2023-03-10T15:24:00.139Z,25.93
2023-03-10T15:26:27.221Z,31.70
2023-03-10T15:28:54.318Z,70.30
2023-03-10T15:31:21.385Z,45.47
2023-03-10T15:33:48.541Z,93.37
2023-03-10T15:36:16.017Z,47.63
2023-03-10T15:38:43.200Z,43.03
2023-03-10T15:41:10.279Z,33.20
2023-03-10T15:43:37.622Z,35.03
2023-03-10T15:46:09.494Z,30.33
2023-03-10T15:48:36.795Z,33.40
2023-03-10T15:51:17.318Z,23.63
2023-03-10T15:53:45.463Z,27.47
2023-03-10T15:56:13.217Z,33.37
2023-03-10T15:58:40.303Z,27.80
2023-03-10T16:01:20.664Z,31.53
2023-03-10T16:03:51.384Z,32.47
2023-03-10T16:06:18.909Z,35.73
2023-03-10T16:08:47.147Z,32.83
2023-03-10T16:11:20.299Z,31.60
2023-03-10T16:13:49.488Z,31.47
2023-03-10T16:16:23.056Z,32.67
2023-03-10T16:18:50.458Z,37.53
2023-03-10T16:21:18.265Z,36.53
2023-03-10T16:23:45.830Z,35.07
2023-03-10T16:26:17.159Z,39.53
2023-03-10T16:28:48.980Z,35.20
2023-03-10T16:31:19.769Z,38.30
2023-03-10T16:33:49.603Z,41.73
2023-03-10T16:36:22.022Z,36.93
2023-03-10T16:38:49.765Z,40.50
2023-03-10T16:41:18.047Z,42.50
2023-03-10T16:43:47.788Z,42.87
2023-03-10T16:46:30.059Z,39.40
2023-03-10T16:49:00.140Z,26.67
2023-03-10T16:51:38.026Z,28.70
2023-03-10T16:54:13.028Z,27.40
2023-03-10T16:56:45.023Z,26.50
2023-03-10T16:59:22.690Z,27.83
2023-03-10T17:01:51.137Z,28.10
2023-03-10T17:04:20.064Z,24.20
2023-03-10T17:06:50.511Z,22.33
2023-03-10T17:09:18.384Z,22.70
2023-03-10T17:11:54.322Z,25.23
2023-03-10T17:14:22.642Z,23.87
2023-03-10T17:16:50.794Z,23.53
2023-03-10T17:19:26.406Z,18.27
2023-03-10T17:21:53.980Z,24.20
2023-03-10T17:24:21.493Z,22.30
2023-03-10T17:26:49.200Z,20.90
2023-03-10T17:29:17.000Z,19.83
2023-03-10T17:31:48.733Z,18.53
2023-03-10T17:34:15.985Z,18.73
2023-03-10T17:36:43.389Z,18.03
2023-03-10T17:39:21.205Z,17.77
2023-03-10T17:41:49.315Z,18.70
2023-03-10T17:44:17.153Z,19.03
2023-03-10T17:46:45.353Z,17.33
2023-03-10T17:49:14.330Z,17.60
2023-03-10T17:51:44.162Z,18.87
2023-03-10T17:54:21.867Z,15.47
2023-03-10T17:56:50.193Z,16.87
2023-03-10T17:59:18.021Z,20.43
2023-03-10T18:01:46.059Z,17.33
2023-03-10T18:04:13.720Z,19.50
2023-03-10T18:06:41.197Z,17.70
2023-03-10T18:09:13.234Z,17.37
2023-03-10T18:11:41.812Z,26.90
2023-03-10T18:14:08.878Z,26.97
2023-03-10T18:16:40.003Z,20.10
2023-03-10T18:19:10.493Z,20.73
2023-03-10T18:21:38.819Z,24.10
2023-03-10T18:24:06.506Z,24.40
2023-03-10T18:26:35.381Z,25.83
2023-03-10T18:29:02.600Z,22.73
2023-03-10T18:31:34.358Z,28.93
2023-03-10T18:34:02.628Z,26.53
2023-03-10T18:36:30.532Z,27.17
2023-03-10T18:38:58.044Z,33.93
2023-03-10T18:41:30.675Z,29.33
2023-03-10T18:43:57.815Z,36.93
2023-03-10T18:46:25.157Z,37.07
2023-03-10T18:48:58.105Z,31.47
2023-03-10T18:51:28.135Z,30.63
2023-03-10T18:53:55.663Z,30.27
2023-03-10T18:56:25.630Z,33.63
2023-03-10T18:58:52.756Z,29.60
2023-03-10T19:01:19.882Z,31.63
2023-03-10T19:03:46.945Z,31.53
2023-03-10T19:06:17.460Z,33.57
2023-03-10T19:08:44.697Z,32.53
2023-03-10T19:11:12.077Z,33.90
2023-03-10T19:13:40.524Z,32.43
2023-03-10T19:16:09.763Z,37.20
2023-03-10T19:18:38.023Z,39.40
2023-03-10T19:21:06.098Z,37.93
2023-03-10T19:23:34.882Z,40.50
2023-03-10T19:26:03.258Z,36.50
2023-03-10T19:28:31.266Z,36.27
2023-03-10T19:30:58.537Z,36.97
2023-03-10T19:33:25.736Z,36.47
2023-03-10T19:36:05.492Z,38.77
2023-03-10T19:38:36.434Z,32.97
2023-03-10T19:41:05.678Z,37.17
2023-03-10T19:43:33.579Z,35.37
2023-03-10T19:46:03.563Z,30.33
2023-03-10T19:48:31.415Z,32.40
2023-03-10T19:51:00.143Z,34.87
2023-03-10T19:53:29.624Z,35.27
2023-03-10T19:56:03.491Z,37.63
2023-03-10T19:58:32.644Z,36.33
2023-03-10T20:01:00.520Z,34.97
2023-03-10T20:03:30.835Z,34.77
2023-03-10T20:05:58.101Z,37.53
2023-03-10T20:08:25.449Z,33.90
2023-03-10T20:10:52.608Z,32.00
2023-03-10T20:13:20.884Z,35.63
2023-03-10T20:15:47.912Z,33.70
2023-03-10T20:18:18.278Z,29.80
2023-03-10T20:20:48.469Z,30.77
2023-03-10T20:23:16.285Z,30.20
2023-03-10T20:25:45.529Z,32.03
2023-03-10T20:28:14.037Z,30.27
2023-03-10T20:30:41.511Z,26.23
2023-03-10T20:33:08.791Z,31.13
2023-03-10T20:35:38.073Z,28.67
2023-03-10T20:38:05.285Z,31.53
2023-03-10T20:40:32.473Z,32.57
2023-03-10T20:42:59.731Z,34.50
2023-03-10T20:45:28.065Z,35.60
2023-03-10T20:47:55.567Z,29.17
2023-03-10T20:50:23.213Z,27.10
2023-03-10T20:52:50.952Z,28.20
2023-03-10T20:55:27.341Z,30.20
2023-03-10T20:57:58.361Z,29.37
2023-03-10T21:00:28.689Z,28.97
2023-03-10T21:02:57.314Z,30.37
2023-03-10T21:05:27.352Z,34.43
2023-03-10T21:07:54.869Z,29.03
2023-03-10T21:10:22.493Z,29.20
2023-03-10T21:12:50.741Z,31.00
2023-03-10T21:15:19.486Z,30.13
2023-03-10T21:17:47.621Z,34.90
2023-03-10T21:20:23.686Z,30.67
2023-03-10T21:22:51.266Z,28.83
2023-03-10T21:25:25.695Z,28.03
2023-03-10T21:28:01.815Z,29.63
2023-03-10T21:30:31.921Z,29.10
2023-03-10T21:32:59.927Z,26.83
2023-03-10T21:35:31.873Z,28.73
2023-03-10T21:37:59.347Z,27.03
2023-03-10T21:40:26.902Z,29.30
2023-03-10T21:42:54.105Z,30.97
2023-03-10T21:45:24.273Z,32.77
2023-03-10T21:47:51.546Z,33.27
2023-03-10T21:50:19.454Z,34.20
2023-03-10T21:52:47.926Z,30.17
2023-03-10T21:55:24.955Z,31.70
2023-03-10T21:57:52.900Z,32.93
2023-03-10T22:00:23.300Z,35.43
2023-03-10T22:03:00.431Z,32.43
2023-03-10T22:05:27.590Z,30.73
2023-03-10T22:07:56.369Z,33.00
2023-03-10T22:10:23.548Z,33.80
2023-03-10T22:12:50.589Z,32.87
2023-03-10T22:15:27.262Z,33.50
2023-03-10T22:17:55.570Z,37.40
2023-03-10T22:20:28.387Z,38.03
2023-03-10T22:22:55.841Z,36.03
2023-03-10T22:25:26.227Z,34.70
2023-03-10T22:27:56.117Z,41.03
2023-03-10T22:30:26.479Z,38.73
2023-03-10T22:32:55.204Z,38.40
2023-03-10T22:35:23.308Z,39.77
2023-03-10T22:37:54.053Z,41.13
2023-03-10T22:40:27.379Z,40.73
2023-03-10T22:42:54.672Z,32.57
2023-03-10T22:45:27.748Z,33.20
2023-03-10T22:48:00.007Z,36.93
2023-03-10T22:50:44.206Z,36.30
2023-03-10T22:53:20.834Z,30.23
2023-03-10T22:55:49.639Z,39.23
2023-03-10T22:58:17.121Z,34.40
2023-03-10T23:00:44.583Z,33.93
2023-03-10T23:03:13.739Z,36.27
2023-03-10T23:05:41.576Z,27.67
2023-03-10T23:08:08.715Z,28.83
2023-03-10T23:10:37.210Z,25.97
2023-03-10T23:13:14.410Z,31.87
2023-03-10T23:15:42.627Z,32.20
2023-03-10T23:18:10.561Z,35.67
2023-03-10T23:20:44.011Z,32.07
2023-03-10T23:23:18.223Z,26.33
2023-03-10T23:25:48.732Z,29.87
2023-03-10T23:28:17.894Z,29.17
2023-03-10T23:30:48.569Z,31.10
2023-03-10T23:33:23.271Z,24.27
2023-03-10T23:35:53.623Z,29.77
2023-03-10T23:38:26.380Z,22.77
2023-03-10T23:40:56.465Z,21.83
2023-03-10T23:43:23.863Z,26.60
2023-03-10T23:45:50.994Z,27.37
2023-03-10T23:48:20.049Z,27.47
2023-03-10T23:50:48.628Z,29.60
2023-03-10T23:53:20.785Z,30.70
2023-03-10T23:55:48.676Z,29.30
2023-03-10T23:58:19.184Z,29.93
